Time;durP1;ratioP1;P1;durP2;ratioP2;P2;SDS_P1;SDS_P2;PMS_P1;PMS_P2;Temp;Humidity;BMP_temperature;BMP_pressure;BME280_temperature;BME280_humidity;BME280_pressure;Samples;Min_cycle;Max_cycle;Signal;HPM_P1;HPM_P2
2023/05/12 00:01:13;;;;;;;9.82;6.00;;;;;;;-146.27;100.00;83296.28;5047712;28;20029;-68
2023/05/12 00:03:39;;;;;;;13.00;6.43;;;;;;;-146.27;100.00;83306.34;5046199;28;20031;-68
2023/05/12 00:06:05;;;;;;;11.55;6.03;;;;;;;-146.27;100.00;83284.22;5044268;28;20025;-68
2023/05/12 00:08:30;;;;;;;11.43;5.85;;;;;;;-146.27;100.00;83310.34;5047819;28;20049;-69
2023/05/12 00:10:56;;;;;;;9.63;5.82;;;;;;;-146.27;100.00;83292.28;5044723;28;20059;-68
2023/05/12 00:13:22;;;;;;;14.98;6.45;;;;;;;-146.27;100.00;83304.31;5048373;28;20567;-68
2023/05/12 00:15:48;;;;;;;10.05;6.45;;;;;;;-146.27;100.00;83302.31;5046463;28;20035;-68
2023/05/12 00:18:14;;;;;;;10.60;6.50;;;;;;;-146.27;100.00;83296.28;5047287;28;20028;-68
2023/05/12 00:20:39;;;;;;;11.98;6.97;;;;;;;-146.27;100.00;83284.22;5046541;28;20108;-68
2023/05/12 00:23:04;;;;;;;11.32;6.30;;;;;;;-146.27;100.00;83240.03;5044805;28;20033;-68
2023/05/12 00:25:30;;;;;;;12.25;6.35;;;;;;;-146.27;100.00;83310.34;5048004;28;20021;-68
2023/05/12 00:27:55;;;;;;;12.13;6.40;;;;;;;-146.27;100.00;83324.41;5046114;28;20536;-69
2023/05/12 00:30:21;;;;;;;11.07;5.65;;;;;;;-146.27;100.00;83324.41;5042479;28;20043;-68
2023/05/12 00:32:46;;;;;;;9.82;6.00;;;;;;;-146.27;100.00;83336.47;5044730;28;20021;-69
2023/05/12 00:35:11;;;;;;;11.90;6.85;;;;;;;-146.27;100.00;83340.50;5047013;28;20137;-69
2023/05/12 00:37:37;;;;;;;12.52;5.40;;;;;;;-146.27;100.00;83268.16;5047545;28;20516;-68
2023/05/12 00:40:03;;;;;;;9.40;6.00;;;;;;;-146.27;100.00;83368.63;5044021;28;20154;-68
2023/05/12 00:42:28;;;;;;;9.23;5.70;;;;;;;-146.27;100.00;83386.69;5042200;28;20159;-69
2023/05/12 00:44:53;;;;;;;10.07;5.78;;;;;;;-146.27;100.00;83308.34;5043544;28;20027;-68
2023/05/12 00:47:20;;;;;;;9.57;5.20;;;;;;;-146.27;100.00;83370.63;5047833;28;20125;-68
2023/05/12 00:49:45;;;;;;;9.25;6.07;;;;;;;-146.27;100.00;83388.72;5043727;28;20056;-68
2023/05/12 00:52:11;;;;;;;7.88;4.78;;;;;;;-146.27;100.00;83390.72;5045643;28;20389;-68
2023/05/12 00:54:37;;;;;;;10.18;4.82;;;;;;;-146.27;100.00;83352.53;5044198;28;20116;-68
2023/05/12 00:57:03;;;;;;;9.25;4.55;;;;;;;-146.27;100.00;83378.66;5044227;28;20017;-68
2023/05/12 00:59:28;;;;;;;9.88;5.10;;;;;;;-146.27;100.00;83344.50;5045162;28;20040;-69
2023/05/12 01:01:55;;;;;;;9.35;4.57;;;;;;;-146.27;100.00;83388.72;5048009;28;20025;-69
2023/05/12 01:04:20;;;;;;;10.45;4.93;;;;;;;-146.27;100.00;83374.66;5044745;28;20108;-69
2023/05/12 01:06:55;;;;;;;8.77;4.85;;;;;;;-146.27;100.00;83378.66;5045176;28;20096;-68
2023/05/12 01:09:20;;;;;;;11.35;4.88;;;;;;;-146.27;100.00;83362.59;5046331;28;20128;-68
2023/05/12 01:11:46;;;;;;;6.30;4.40;;;;;;;-146.27;100.00;83300.31;5045769;28;20116;-69
2023/05/12 01:14:11;;;;;;;8.57;4.70;;;;;;;-146.27;100.00;83384.69;5044141;28;20040;-68
2023/05/12 01:16:50;;;;;;;7.55;4.15;;;;;;;-146.27;100.00;83408.81;5041120;28;20143;-68
2023/05/12 01:19:40;;;;;;;13.43;4.32;;;;;;;-146.27;100.00;83362.59;5042002;28;20040;-69
2023/05/12 01:22:06;;;;;;;6.53;4.00;;;;;;;-146.27;100.00;83410.81;5043882;28;20029;-69
2023/05/12 01:24:34;;;;;;;7.47;4.35;;;;;;;-146.27;100.00;83406.78;5045888;28;20725;-69
2023/05/12 01:27:01;;;;;;;9.93;4.45;;;;;;;-146.27;100.00;83400.78;5049944;28;20028;-69
2023/05/12 01:29:27;;;;;;;5.97;4.05;;;;;;;-146.27;100.00;83380.69;5045485;28;20029;-69
2023/05/12 01:31:54;;;;;;;5.68;3.63;;;;;;;-146.27;100.00;83416.84;5044879;28;20032;-68
2023/05/12 01:34:19;;;;;;;7.75;4.00;;;;;;;-146.27;100.00;83412.81;5046109;28;20033;-68
2023/05/12 01:36:45;;;;;;;7.82;4.00;;;;;;;-146.27;100.00;83410.81;5047691;28;20579;-68
2023/05/12 01:39:11;;;;;;;9.75;4.60;;;;;;;-146.27;100.00;83406.78;5043419;28;20424;-68
2023/05/12 01:41:37;;;;;;;8.07;4.30;;;;;;;-146.27;100.00;83428.91;5046169;28;20024;-68
2023/05/12 01:44:02;;;;;;;9.52;4.28;;;;;;;-146.27;100.00;83453.00;5046179;28;20662;-68
2023/05/12 01:46:27;;;;;;;12.23;5.40;;;;;;;-146.27;100.00;83392.72;5045292;28;20094;-69
2023/05/12 01:48:53;;;;;;;10.70;4.93;;;;;;;-146.27;100.00;83356.56;5042073;28;20415;-69
2023/05/12 01:51:18;;;;;;;10.13;4.68;;;;;;;-146.27;100.00;83402.78;5045988;28;20056;-68
2023/05/12 01:53:43;;;;;;;8.68;4.45;;;;;;;-146.27;100.00;83418.84;5044894;28;20053;-69
2023/05/12 01:56:09;;;;;;;9.90;4.80;;;;;;;-146.27;100.00;83404.78;5045477;28;20025;-69
2023/05/12 01:58:34;;;;;;;12.77;5.22;;;;;;;-146.27;100.00;83412.81;5046228;28;20033;-68
2023/05/12 02:01:00;;;;;;;12.82;5.55;;;;;;;-146.27;100.00;83412.81;5043660;28;20021;-68
2023/05/12 02:03:25;;;;;;;13.77;7.00;;;;;;;-146.27;100.00;83432.91;5044066;28;20496;-68
2023/05/12 02:05:50;;;;;;;10.07;6.28;;;;;;;-146.27;100.00;83453.00;5042942;28;20556;-68
2023/05/12 02:08:16;;;;;;;9.40;6.10;;;;;;;-146.27;100.00;83428.91;5044108;28;20028;-67
2023/05/12 02:10:41;;;;;;;16.38;6.35;;;;;;;-146.27;100.00;83440.94;5045425;28;20132;-68
2023/05/12 02:13:07;;;;;;;9.23;5.93;;;;;;;-146.27;100.00;83442.97;5047154;28;20104;-68
2023/05/12 02:15:32;;;;;;;13.63;6.68;;;;;;;-146.27;100.00;83396.75;5048611;28;20480;-68
2023/05/12 02:17:58;;;;;;;15.32;6.47;;;;;;;-146.27;100.00;83400.78;5046274;28;20029;-67
2023/05/12 02:20:23;;;;;;;18.30;6.22;;;;;;;-146.27;100.00;83420.88;5038820;28;20205;-68
2023/05/12 02:22:48;;;;;;;11.68;6.53;;;;;;;-146.27;100.00;83432.91;5046017;28;20063;-68
2023/05/12 02:25:14;;;;;;;13.75;6.18;;;;;;;-146.27;100.00;83380.69;5050673;28;20025;-68
2023/05/12 02:27:39;;;;;;;16.23;6.30;;;;;;;-146.27;100.00;83396.75;5050884;28;20029;-68
2023/05/12 02:30:05;;;;;;;15.10;5.72;;;;;;;-146.27;100.00;83408.81;5047623;28;20032;-68
2023/05/12 02:32:31;;;;;;;11.55;6.30;;;;;;;-146.27;100.00;83390.72;5048252;28;20068;-68
2023/05/12 02:34:56;;;;;;;14.93;6.25;;;;;;;-146.27;100.00;83434.94;5049353;28;20056;-68
2023/05/12 02:37:22;;;;;;;15.10;6.82;;;;;;;-146.27;100.00;83424.88;5049082;28;20155;-69
2023/05/12 02:39:47;;;;;;;11.88;6.15;;;;;;;-146.27;100.00;83376.66;5049381;28;20078;-69
2023/05/12 02:42:13;;;;;;;14.60;7.22;;;;;;;-146.27;100.00;83398.75;5049817;28;20028;-69
2023/05/12 02:44:38;;;;;;;8.50;5.93;;;;;;;-146.27;100.00;83400.78;5048490;28;20035;-69
2023/05/12 02:47:04;;;;;;;10.55;6.57;;;;;;;-146.27;100.00;83444.97;5048772;28;20379;-69
2023/05/12 02:49:29;;;;;;;11.57;6.45;;;;;;;-146.27;100.00;83406.78;5048554;28;20050;-69
2023/05/12 02:51:54;;;;;;;16.35;6.20;;;;;;;-146.27;100.00;83408.81;5046167;28;20538;-69
2023/05/12 02:54:20;;;;;;;10.68;5.68;;;;;;;-146.27;100.00;83428.91;5048529;28;20025;-67
2023/05/12 02:56:45;;;;;;;9.95;6.25;;;;;;;-146.27;100.00;83440.94;5048921;28;20477;-70
2023/05/12 02:59:11;;;;;;;11.73;6.40;;;;;;;-146.27;100.00;83434.94;5050659;28;20028;-69
2023/05/12 03:01:36;;;;;;;11.82;7.30;;;;;;;-146.27;100.00;83416.84;5049626;28;20040;-69
2023/05/12 03:04:02;;;;;;;10.65;6.07;;;;;;;-146.27;100.00;83420.88;5048741;28;20033;-69
2023/05/12 03:06:28;;;;;;;14.35;6.40;;;;;;;-146.27;100.00;83438.94;5048670;28;20036;-69
2023/05/12 03:08:54;;;;;;;15.73;7.35;;;;;;;-146.27;100.00;83434.94;5048020;28;20103;-69
2023/05/12 03:11:21;;;;;;;14.63;7.72;;;;;;;-146.27;100.00;83469.09;5047976;28;21489;-69
2023/05/12 03:13:46;;;;;;;13.73;8.15;;;;;;;-146.27;100.00;83453.00;5049986;28;20029;-69
2023/05/12 03:16:12;;;;;;;19.30;9.80;;;;;;;-146.27;100.00;83461.06;5050513;28;20047;-69
2023/05/12 03:18:37;;;;;;;23.17;10.82;;;;;;;-146.27;100.00;83487.16;5047463;28;20017;-69
2023/05/12 03:21:03;;;;;;;20.67;10.50;;;;;;;-146.27;100.00;83428.91;5047903;28;20571;-69
2023/05/12 03:23:28;;;;;;;25.85;12.35;;;;;;;-146.27;100.00;83493.19;5046728;28;20032;-69
2023/05/12 03:25:54;;;;;;;19.67;11.55;;;;;;;-146.27;100.00;83410.81;5048242;28;20048;-70
2023/05/12 03:28:21;;;;;;;20.05;10.98;;;;;;;-146.27;100.00;83459.03;5045522;28;20072;-69
2023/05/12 03:30:47;;;;;;;17.30;9.35;;;;;;;-146.27;100.00;83469.09;5048054;28;20556;-69
2023/05/12 03:33:12;;;;;;;20.15;9.48;;;;;;;-146.27;100.00;83485.16;5048738;28;20111;-69
2023/05/12 03:35:38;;;;;;;17.30;9.45;;;;;;;-146.27;100.00;83467.06;5049505;28;20056;-69
2023/05/12 03:38:03;;;;;;;19.88;9.27;;;;;;;-146.27;100.00;83465.06;5046951;28;20056;-69
2023/05/12 03:40:29;;;;;;;17.75;8.15;;;;;;;-146.27;100.00;83457.03;5045705;28;20029;-68
2023/05/12 03:42:55;;;;;;;14.45;7.68;;;;;;;-146.27;100.00;83473.09;5047293;28;20017;-68
2023/05/12 03:45:20;;;;;;;16.52;7.85;;;;;;;-146.27;100.00;83469.09;5046459;28;20602;-70
2023/05/12 03:47:45;;;;;;;16.52;7.20;;;;;;;-146.27;100.00;83451.00;5044309;28;20472;-68
2023/05/12 03:50:11;;;;;;;11.77;6.43;;;;;;;-146.27;100.00;83477.13;5046359;28;20068;-69
2023/05/12 03:52:40;;;;;;;7.93;5.40;;;;;;;-146.27;100.00;83485.16;5046777;28;20025;-69
2023/05/12 03:55:06;;;;;;;8.60;5.65;;;;;;;-146.27;100.00;83444.97;5047760;28;20106;-69
2023/05/12 03:57:33;;;;;;;7.78;5.05;;;;;;;-146.27;100.00;83489.19;5048470;28;20033;-69
2023/05/12 03:59:58;;;;;;;8.65;5.20;;;;;;;-146.27;100.00;83424.88;5049533;28;20036;-69
2023/05/12 04:02:24;;;;;;;11.07;4.93;;;;;;;-146.27;100.00;83461.06;5049115;28;20104;-69
2023/05/12 04:04:49;;;;;;;9.40;4.80;;;;;;;-146.27;100.00;83449.00;5048326;28;20024;-69
2023/05/12 04:07:15;;;;;;;14.00;4.95;;;;;;;-146.27;100.00;83463.06;5046610;28;20502;-68
2023/05/12 04:09:40;;;;;;;12.88;4.82;;;;;;;-146.27;100.00;83453.00;5045841;28;20059;-68
2023/05/12 04:12:05;;;;;;;8.90;4.35;;;;;;;-146.27;100.00;83459.03;5048516;28;20057;-69
2023/05/12 04:14:31;;;;;;;9.77;4.25;;;;;;;-146.27;100.00;83467.06;5050210;28;20068;-68
2023/05/12 04:16:57;;;;;;;7.90;4.32;;;;;;;-146.27;100.00;83477.13;5048768;28;20508;-68
2023/05/12 04:19:22;;;;;;;5.30;4.10;;;;;;;-146.27;100.00;83479.13;5046652;28;20036;-68
2023/05/12 04:21:48;;;;;;;7.47;4.50;;;;;;;-146.27;100.00;83477.13;5043030;28;20075;-69
2023/05/12 04:24:13;;;;;;;6.93;4.32;;;;;;;-146.27;100.00;83465.06;5049045;28;20021;-69
2023/05/12 04:26:39;;;;;;;7.18;5.15;;;;;;;-146.27;100.00;83457.03;5043749;28;20505;-68
2023/05/12 04:29:04;;;;;;;7.40;5.55;;;;;;;-146.27;100.00;83477.13;5049201;28;20075;-68
2023/05/12 04:31:30;;;;;;;13.43;6.10;;;;;;;-146.27;100.00;83489.19;5038151;28;20040;-68
2023/05/12 04:33:55;;;;;;;7.93;6.15;;;;;;;-146.27;100.00;83513.28;5037063;28;20029;-68
2023/05/12 04:36:21;;;;;;;9.27;6.18;;;;;;;-146.27;100.00;83457.03;5043375;28;20032;-68
2023/05/12 04:38:47;;;;;;;14.50;6.10;;;;;;;-146.27;100.00;83455.03;5043989;28;20029;-67
2023/05/12 04:41:12;;;;;;;10.55;6.70;;;;;;;-146.27;100.00;83455.03;5046572;28;20020;-69
2023/05/12 04:43:37;;;;;;;10.20;7.43;;;;;;;-146.27;100.00;83440.94;5046350;28;20469;-69
2023/05/12 04:46:03;;;;;;;10.15;6.88;;;;;;;-146.27;100.00;83491.19;5042217;28;21817;-69
2023/05/12 04:48:28;;;;;;;10.32;7.47;;;;;;;-146.27;100.00;83497.22;5045818;28;20028;-69
2023/05/12 04:50:54;;;;;;;12.25;7.97;;;;;;;-146.27;100.00;83497.22;5046175;28;20020;-69
2023/05/12 04:53:19;;;;;;;16.70;7.82;;;;;;;-146.27;100.00;83505.25;5045287;28;20041;-69
2023/05/12 04:55:45;;;;;;;15.27;6.72;;;;;;;-146.27;100.00;83465.06;5038795;28;20029;-69
2023/05/12 04:58:12;;;;;;;12.68;7.22;;;;;;;-146.27;100.00;83493.19;5043090;28;20029;-69
2023/05/12 05:00:38;;;;;;;10.00;6.60;;;;;;;-146.27;100.00;83481.16;5048172;28;20063;-69
2023/05/12 05:03:04;;;;;;;11.35;6.60;;;;;;;-146.27;100.00;83497.22;5045635;28;20507;-69
2023/05/12 05:05:29;;;;;;;11.90;7.45;;;;;;;-146.27;100.00;83481.16;5046804;28;20021;-68
2023/05/12 05:07:55;;;;;;;12.38;8.13;;;;;;;-146.27;100.00;83420.88;5044660;28;20519;-68
2023/05/12 05:10:20;;;;;;;15.93;7.97;;;;;;;-146.27;100.00;83453.00;5046904;28;20048;-67
2023/05/12 05:12:46;;;;;;;12.10;8.00;;;;;;;-146.27;100.00;83485.16;5044677;28;20175;-66
2023/05/12 05:15:11;;;;;;;15.77;8.82;;;;;;;-146.27;100.00;83467.06;5045500;28;20028;-67
2023/05/12 05:17:37;;;;;;;17.92;9.18;;;;;;;-146.27;100.00;83457.03;5045500;28;20032;-67
2023/05/12 05:20:03;;;;;;;16.67;9.88;;;;;;;-146.27;100.00;83420.88;5043238;28;20161;-67
2023/05/12 05:22:29;;;;;;;18.15;10.15;;;;;;;-146.27;100.00;83455.03;5048036;28;20057;-66
2023/05/12 05:24:55;;;;;;;19.08;10.00;;;;;;;-146.27;100.00;83404.78;5046289;28;20602;-67
2023/05/12 05:27:20;;;;;;;19.20;10.60;;;;;;;-146.27;100.00;83442.97;5046610;28;20071;-65
2023/05/12 05:29:45;;;;;;;21.80;11.40;;;;;;;-146.27;100.00;83461.06;5047862;28;20033;-68
2023/05/12 05:32:11;;;;;;;20.95;12.15;;;;;;;-146.27;100.00;83440.94;5043711;28;20396;-66
2023/05/12 05:34:36;;;;;;;23.50;11.68;;;;;;;-146.27;100.00;83436.94;5047031;28;20040;-66
2023/05/12 05:37:02;;;;;;;33.00;14.18;;;;;;;-146.27;100.00;83455.03;5043480;28;20029;-69
2023/05/12 05:39:29;;;;;;;31.50;13.63;;;;;;;-146.27;100.00;83469.09;5040194;28;20040;-67
2023/05/12 05:41:55;;;;;;;32.80;14.07;;;;;;;-146.27;100.00;83453.00;5043652;28;20060;-68
2023/05/12 05:44:21;;;;;;;31.92;14.00;;;;;;;-146.27;100.00;83436.94;5047257;28;20017;-68
2023/05/12 05:46:46;;;;;;;41.67;15.35;;;;;;;-146.27;100.00;83430.91;5044326;28;20480;-67
2023/05/12 05:49:11;;;;;;;43.83;17.88;;;;;;;-146.27;100.00;83455.03;5046500;28;20028;-67
2023/05/12 05:51:37;;;;;;;60.83;21.20;;;;;;;-146.27;100.00;83432.91;5042410;28;20173;-68
2023/05/12 05:54:02;;;;;;;60.35;21.88;;;;;;;-146.27;100.00;83453.00;5047955;28;20025;-67
2023/05/12 05:56:29;;;;;;;72.55;23.98;;;;;;;-146.27;100.00;83440.94;5041737;28;20055;-68
2023/05/12 05:58:55;;;;;;;74.40;25.33;;;;;;;-146.27;100.00;83372.63;5042442;28;20032;-67
2023/05/12 06:01:21;;;;;;;74.03;26.38;;;;;;;-146.27;100.00;83388.72;5046385;28;20037;-68
2023/05/12 06:03:46;;;;;;;73.65;26.73;;;;;;;-146.27;100.00;83396.75;5039298;28;20115;-68
2023/05/12 06:06:12;;;;;;;79.28;25.67;;;;;;;-146.27;100.00;83430.91;5037435;28;20448;-68
2023/05/12 06:08:37;;;;;;;86.60;28.50;;;;;;;-146.27;100.00;83340.50;5045570;28;20049;-69
2023/05/12 06:11:02;;;;;;;81.45;28.13;;;;;;;-146.27;100.00;83372.63;5046086;28;20048;-67
2023/05/12 06:13:28;;;;;;;78.68;26.10;;;;;;;-146.27;100.00;83384.69;5047540;28;20025;-68
2023/05/12 06:15:53;;;;;;;87.47;27.98;;;;;;;-146.27;100.00;83342.50;5041942;28;20032;-68
2023/05/12 06:18:21;;;;;;;83.72;27.05;;;;;;;-146.27;100.00;83376.66;5051572;28;20033;-67
2023/05/12 06:20:46;;;;;;;92.32;28.20;;;;;;;-146.27;100.00;83376.66;5046003;28;20025;-68
2023/05/12 06:23:11;;;;;;;94.90;27.67;;;;;;;-146.27;100.00;83340.50;5046278;28;20033;-67
2023/05/12 06:25:37;;;;;;;75.28;25.95;;;;;;;-146.27;100.00;83318.38;5045183;28;20032;-67
2023/05/12 06:28:02;;;;;;;93.82;30.48;;;;;;;-146.27;100.00;83326.44;5045753;28;20150;-68
2023/05/12 06:30:28;;;;;;;83.72;27.85;;;;;;;-146.27;100.00;83292.28;5044904;28;20442;-68
2023/05/12 06:32:53;;;;;;;81.68;28.02;;;;;;;-146.27;100.00;83336.47;5044537;28;20518;-67
2023/05/12 06:35:19;;;;;;;82.15;26.65;;;;;;;-146.27;100.00;83338.47;5044423;28;20033;-68
2023/05/12 06:37:48;;;;;;;87.18;27.75;;;;;;;-146.27;100.00;83298.28;5044772;28;20140;-68
2023/05/12 06:40:14;;;;;;;82.43;27.35;;;;;;;-146.27;100.00;83310.34;5045682;28;20154;-67
2023/05/12 06:42:39;;;;;;;82.97;27.75;;;;;;;-146.27;100.00;83268.16;5048572;28;20052;-67
2023/05/12 06:45:05;;;;;;;82.88;27.52;;;;;;;-146.27;100.00;83244.03;5045746;28;20098;-68
2023/05/12 06:47:30;;;;;;;81.07;28.42;;;;;;;-146.27;100.00;83260.13;5047479;28;20020;-67
2023/05/12 06:49:56;;;;;;;82.40;26.75;;;;;;;-146.27;100.00;83223.94;5046601;28;20056;-67
2023/05/12 06:52:22;;;;;;;81.53;27.65;;;;;;;-146.27;100.00;83219.94;5047568;28;20337;-68
2023/05/12 06:54:48;;;;;;;86.65;29.42;;;;;;;-146.27;100.00;83151.63;5047603;28;20073;-67
2023/05/12 06:57:13;;;;;;;73.57;24.55;;;;;;;-146.27;100.00;83165.69;5042891;28;20459;-67
2023/05/12 06:59:39;;;;;;;69.45;26.33;;;;;;;-146.27;100.00;83129.53;5046051;28;20477;-67
2023/05/12 07:02:04;;;;;;;67.20;25.50;;;;;;;-146.27;100.00;83167.69;5047160;28;20108;-68
2023/05/12 07:04:30;;;;;;;68.28;24.65;;;;;;;-146.27;100.00;83125.50;5042135;28;20024;-67
2023/05/12 07:06:55;;;;;;;54.45;23.30;;;;;;;-146.27;100.00;83155.63;5045432;28;20396;-68
2023/05/12 07:09:21;;;;;;;52.22;22.35;;;;;;;-146.27;100.00;83109.44;5043482;28;20098;-67
2023/05/12 07:11:46;;;;;;;46.40;19.05;;;;;;;-146.27;100.00;83123.50;5047317;28;20047;-75
2023/05/12 07:14:12;;;;;;;43.33;19.15;;;;;;;-146.27;100.00;83085.31;5049728;28;20047;-67
2023/05/12 07:16:38;;;;;;;44.08;19.55;;;;;;;-146.27;100.00;83119.47;5047951;28;20021;-68
2023/05/12 07:19:05;;;;;;;36.95;16.50;;;;;;;-146.27;100.00;83109.44;5046155;28;20029;-68
2023/05/12 07:21:30;;;;;;;35.70;17.98;;;;;;;-146.27;100.00;83091.34;5047331;28;20036;-67
2023/05/12 07:23:56;;;;;;;37.88;18.17;;;;;;;-146.27;100.00;83111.44;5040296;28;20033;-68
2023/05/12 07:26:23;;;;;;;35.53;17.10;;;;;;;-146.27;100.00;83131.53;5049085;28;20025;-68
2023/05/12 07:28:48;;;;;;;33.05;16.17;;;;;;;-146.27;100.00;83117.47;5051732;28;20098;-68
2023/05/12 07:31:14;;;;;;;35.92;17.25;;;;;;;-146.27;100.00;83099.38;5050834;28;20096;-68
2023/05/12 07:33:39;;;;;;;33.80;17.35;;;;;;;-146.27;100.00;83059.19;5050769;28;20027;-68
2023/05/12 07:36:05;;;;;;;36.20;16.27;;;;;;;-146.27;100.00;83031.06;5049975;28;20047;-69
2023/05/12 07:38:31;;;;;;;31.55;16.40;;;;;;;-146.27;100.00;83101.38;5049587;28;20025;-69
2023/05/12 07:40:57;;;;;;;31.60;16.75;;;;;;;-146.27;100.00;83059.19;5050605;28;20020;-68
2023/05/12 07:43:23;;;;;;;33.38;17.30;;;;;;;-146.27;100.00;83039.09;5039328;28;20115;-68
2023/05/12 07:45:48;;;;;;;33.00;15.82;;;;;;;-146.27;100.00;83051.16;5048211;28;20100;-69
2023/05/12 07:48:13;;;;;;;33.85;16.23;;;;;;;-146.27;100.00;83051.16;5037297;28;20131;-69
2023/05/12 07:50:39;;;;;;;28.17;15.48;;;;;;;-146.27;100.00;83091.34;5048535;28;20021;-69
2023/05/12 07:53:07;;;;;;;28.83;15.57;;;;;;;-146.27;100.00;82978.84;5046851;28;20033;-69
2023/05/12 07:55:32;;;;;;;33.30;15.75;;;;;;;-146.27;100.00;82990.88;5043440;28;20962;-68
2023/05/12 07:57:58;;;;;;;33.42;16.70;;;;;;;-146.27;100.00;82930.63;5047364;28;20047;-68
2023/05/12 08:00:24;;;;;;;30.00;16.38;;;;;;;-146.27;100.00;82910.53;5046160;28;20040;-68
2023/05/12 08:02:49;;;;;;;31.15;16.95;;;;;;;-146.27;100.00;82910.53;5039652;28;20104;-68
2023/05/12 08:05:15;;;;;;;32.00;16.70;;;;;;;-146.27;100.00;82958.75;5047904;28;20377;-69
2023/05/12 08:07:42;;;;;;;33.95;16.95;;;;;;;-146.27;100.00;82874.38;5053662;28;20028;-69
2023/05/12 08:10:09;;;;;;;30.85;16.42;;;;;;;-146.27;100.00;82866.31;5071642;28;20045;-69
2023/05/12 08:12:34;;;;;;;29.45;15.75;;;;;;;-146.27;100.00;82890.44;5057269;28;20029;-68
2023/05/12 08:15:00;;;;;;;30.77;16.90;;;;;;;-146.27;100.00;82868.34;5052057;28;20107;-69
2023/05/12 08:17:25;;;;;;;34.47;16.25;;;;;;;-146.27;100.00;82858.28;5052150;28;20044;-68
2023/05/12 08:19:53;;;;;;;31.98;16.05;;;;;;;-146.27;100.00;82789.97;5051083;28;20048;-69
2023/05/12 08:22:18;;;;;;;30.30;16.92;;;;;;;-146.27;100.00;82747.78;5051096;28;20028;-68
2023/05/12 08:24:47;;;;;;;31.63;15.45;;;;;;;-146.27;100.00;82810.06;5041707;28;20493;-70
2023/05/12 08:27:13;;;;;;;28.00;15.63;;;;;;;-146.27;100.00;82822.13;5038338;28;20711;-69
2023/05/12 08:29:39;;;;;;;27.73;16.30;;;;;;;-146.27;100.00;82767.88;5065151;28;20048;-69
2023/05/12 08:32:04;;;;;;;29.05;15.75;;;;;;;-146.27;100.00;82773.91;5052539;28;20021;-69
2023/05/12 08:34:30;;;;;;;29.10;15.20;;;;;;;-146.27;100.00;82789.97;5065654;28;20423;-70
2023/05/12 08:36:55;;;;;;;28.85;16.20;;;;;;;-146.27;100.00;82769.91;5052854;28;20027;-70
2023/05/12 08:39:23;;;;;;;28.55;14.77;;;;;;;-146.27;100.00;82794.00;5039465;28;20503;-68
2023/05/12 08:41:58;;;;;;;27.08;16.17;;;;;;;-146.27;100.00;82749.81;5045353;28;20091;-68
2023/05/12 08:44:24;;;;;;;27.38;16.23;;;;;;;-146.27;100.00;82735.75;5052169;28;20063;-69
2023/05/12 08:46:51;;;;;;;30.38;16.70;;;;;;;-146.27;100.00;82709.63;5044440;28;20142;-67
2023/05/12 08:49:20;;;;;;;26.75;15.55;;;;;;;-146.27;100.00;82687.53;5048448;28;20025;-69
2023/05/12 08:51:47;;;;;;;29.02;16.23;;;;;;;-146.27;100.00;82653.38;5035123;28;20045;-70
2023/05/12 08:54:12;;;;;;;36.28;16.15;;;;;;;-146.27;100.00;82703.59;5038188;28;20535;-69
2023/05/12 08:56:39;;;;;;;23.40;15.40;;;;;;;-146.27;100.00;82657.41;5050631;28;20029;-68
2023/05/12 08:59:07;;;;;;;25.77;15.18;;;;;;;-146.27;100.00;82609.19;5049274;28;20025;-68
2023/05/12 09:01:37;;;;;;;28.65;16.25;;;;;;;-146.27;100.00;82597.13;5035772;28;20048;-68
2023/05/12 09:04:05;;;;;;;28.70;15.68;;;;;;;-146.27;100.00;82573.00;5044226;28;20029;-68
2023/05/12 09:06:31;;;;;;;29.58;15.65;;;;;;;-146.27;100.00;82619.22;5047612;28;20635;-69
2023/05/12 09:08:57;;;;;;;24.05;14.40;;;;;;;-146.27;100.00;82585.06;5040142;28;20104;-68
2023/05/12 09:11:22;;;;;;;23.17;13.32;;;;;;;-146.27;100.00;82534.84;5050283;28;20051;-69
2023/05/12 09:13:54;;;;;;;23.20;15.15;;;;;;;-146.27;100.00;82520.78;5042700;28;20025;-69
2023/05/12 09:16:23;;;;;;;21.15;13.75;;;;;;;-146.27;100.00;82510.75;5044199;28;20688;-69
2023/05/12 09:18:56;;;;;;;20.67;13.48;;;;;;;-146.27;100.00;82534.84;5048155;28;20468;-70
2023/05/12 09:21:21;;;;;;;21.10;13.32;;;;;;;-146.27;100.00;82514.75;5037617;28;20032;-69
2023/05/12 09:23:57;;;;;;;22.55;13.43;;;;;;;-146.27;100.00;82496.69;5032885;28;20030;-70
2023/05/12 09:26:23;;;;;;;23.83;14.70;;;;;;;-146.27;100.00;82448.47;5043734;28;20032;-69
2023/05/12 09:28:51;;;;;;;25.80;13.68;;;;;;;-146.27;100.00;82406.28;5045777;28;20025;-69
2023/05/12 09:31:17;;;;;;;20.77;13.75;;;;;;;-146.27;100.00;82396.25;5041183;28;20507;-69
2023/05/12 09:33:43;;;;;;;21.50;13.57;;;;;;;-146.27;100.00;82337.97;5046205;28;20029;-68
2023/05/12 09:36:09;;;;;;;21.42;13.55;;;;;;;-146.27;100.00;82293.78;5051673;28;20036;-68
2023/05/12 09:38:35;;;;;;;20.85;14.40;;;;;;;-146.27;100.00;82295.81;5046742;28;20447;-68
2023/05/12 09:41:00;;;;;;;18.92;12.40;;;;;;;-146.27;100.00;82271.69;5041389;28;20029;-68
2023/05/12 09:43:25;;;;;;;19.65;12.70;;;;;;;-146.27;100.00;82237.53;5032979;28;20020;-69
2023/05/12 09:45:51;;;;;;;19.55;13.25;;;;;;;-146.27;100.00;82229.50;5037938;28;20079;-68
2023/05/12 09:48:16;;;;;;;19.67;13.23;;;;;;;-146.27;100.00;82241.56;5045328;28;20029;-68
2023/05/12 09:50:47;;;;;;;21.60;12.60;;;;;;;-146.27;100.00;82217.47;5038095;28;20110;-69
2023/05/12 09:53:13;;;;;;;22.83;14.25;;;;;;;-146.27;100.00;82223.47;5059567;28;20047;-69
2023/05/12 09:55:41;;;;;;;20.92;13.80;;;;;;;-146.27;100.00;82235.53;5048472;28;20029;-70
2023/05/12 09:58:08;;;;;;;21.88;13.77;;;;;;;-146.27;100.00;82179.28;5049895;28;20056;-69
2023/05/12 10:00:37;;;;;;;24.23;14.23;;;;;;;-146.27;100.00;82084.88;5050250;28;20032;-67
2023/05/12 10:03:09;;;;;;;20.83;12.18;;;;;;;-146.27;100.00;82113.00;5036378;28;20499;-66
2023/05/12 10:05:35;;;;;;;20.33;12.43;;;;;;;-146.27;100.00;82062.78;5043145;28;20483;-66
2023/05/12 10:08:04;;;;;;;21.52;13.25;;;;;;;-146.27;100.00;81982.44;5049919;28;20024;-70
2023/05/12 10:10:32;;;;;;;21.58;13.32;;;;;;;-146.27;100.00;81988.47;5050634;28;20142;-69
2023/05/12 10:12:58;;;;;;;18.20;12.10;;;;;;;-146.27;100.00;81980.44;5044931;28;20879;-68
2023/05/12 10:15:25;;;;;;;20.38;13.20;;;;;;;-146.27;100.00;81980.44;5051307;28;20444;-67
2023/05/12 10:17:51;;;;;;;19.77;13.93;;;;;;;-146.27;100.00;82070.81;5046735;28;20029;-68
2023/05/12 10:20:17;;;;;;;22.55;14.65;;;;;;;-146.27;100.00;82064.81;5069207;28;20036;-67
2023/05/12 10:22:43;;;;;;;18.65;12.93;;;;;;;-146.27;100.00;82002.53;5050022;28;20029;-67
2023/05/12 10:25:08;;;;;;;21.05;14.23;;;;;;;-146.27;100.00;82010.56;5048650;28;20614;-66
2023/05/12 10:27:35;;;;;;;20.08;13.07;;;;;;;-146.27;100.00;81930.22;5050002;28;20047;-66
2023/05/12 10:30:03;;;;;;;21.35;14.05;;;;;;;-146.27;100.00;81936.25;5048028;28;20070;-66
2023/05/12 10:32:29;;;;;;;20.45;14.32;;;;;;;-146.27;100.00;81912.16;5067322;28;20024;-66
2023/05/12 10:34:55;;;;;;;23.05;13.32;;;;;;;-146.27;100.00;81809.72;5069881;28;20028;-67
2023/05/12 10:37:22;;;;;;;23.60;14.63;;;;;;;-146.27;100.00;81791.63;5061277;28;20107;-66
2023/05/12 10:39:51;;;;;;;17.17;12.93;;;;;;;-146.27;100.00;81747.44;5050059;28;20419;-67
2023/05/12 10:42:24;;;;;;;20.02;12.70;;;;;;;-146.27;100.00;81751.47;5051289;28;20116;-66
2023/05/12 10:44:53;;;;;;;20.60;12.68;;;;;;;-146.27;99.03;81743.44;5052016;28;20377;-67
2023/05/12 10:47:25;;;;;;;18.88;12.25;;;;;;;-146.27;96.87;81741.41;5045046;28;20497;-67
2023/05/12 10:49:57;;;;;;;19.92;13.20;;;;;;;-146.27;96.20;81769.53;5033819;28;20059;-66
2023/05/12 10:52:22;;;;;;;19.42;11.82;;;;;;;-146.27;93.35;81739.41;5050436;28;20029;-67
2023/05/12 10:54:48;;;;;;;15.98;10.63;;;;;;;-146.27;91.85;81725.34;5053402;28;20111;-68